sensor_id;sensor_type;location;lat;lon;timestamp;pressure;altitude;pressure_sealevel;temperature;humidity
79362;BME280;68830;47.566;19.012;2023-11-21T00:01:00;99488.53;;;10.21;90.90
79362;BME280;68830;47.566;19.012;2023-11-21T00:04:05;99472.91;;;9.84;94.57
79362;BME280;68830;47.566;19.012;2023-11-21T00:07:09;99481.09;;;9.73;94.88
79362;BME280;68830;47.566;19.012;2023-11-21T00:10:12;99449.97;;;9.41;97.12
79362;BME280;68830;47.566;19.012;2023-11-21T00:13:16;99484.00;;;9.44;97.68
79362;BME280;68830;47.566;19.012;2023-11-21T00:16:19;99446.13;;;9.17;99.50
79362;BME280;68830;47.566;19.012;2023-11-21T00:19:21;99397.09;;;8.79;99.89
79362;BME280;68830;47.566;19.012;2023-11-21T00:22:23;99482.22;;;9.26;99.99
79362;BME280;68830;47.566;19.012;2023-11-21T00:25:27;99488.16;;;9.28;99.92
79362;BME280;68830;47.566;19.012;2023-11-21T00:28:29;99481.91;;;9.29;99.05
79362;BME280;68830;47.566;19.012;2023-11-21T00:31:31;99488.38;;;9.17;100.00
79362;BME280;68830;47.566;19.012;2023-11-21T00:34:33;99487.25;;;9.02;99.93
79362;BME280;68830;47.566;19.012;2023-11-21T00:37:36;99488.06;;;9.03;100.00
79362;BME280;68830;47.566;19.012;2023-11-21T00:40:39;99504.19;;;9.09;100.00
79362;BME280;68830;47.566;19.012;2023-11-21T00:43:41;99500.63;;;9.18;100.00
79362;BME280;68830;47.566;19.012;2023-11-21T00:46:43;99500.34;;;9.21;99.53
79362;BME280;68830;47.566;19.012;2023-11-21T00:49:45;99509.31;;;9.28;99.03
79362;BME280;68830;47.566;19.012;2023-11-21T00:52:47;99507.72;;;9.36;98.48
79362;BME280;68830;47.566;19.012;2023-11-21T00:55:51;99500.69;;;9.44;99.11
79362;BME280;68830;47.566;19.012;2023-11-21T00:58:57;99494.94;;;9.49;97.31
79362;BME280;68830;47.566;19.012;2023-11-21T01:01:59;99469.91;;;9.35;97.44
79362;BME280;68830;47.566;19.012;2023-11-21T01:05:03;99495.19;;;9.55;97.89
79362;BME280;68830;47.566;19.012;2023-11-21T01:08:05;99462.41;;;9.31;98.67
79362;BME280;68830;47.566;19.012;2023-11-21T01:11:08;99473.75;;;9.23;99.42
79362;BME280;68830;47.566;19.012;2023-11-21T01:14:12;99397.63;;;8.65;99.94
79362;BME280;68830;47.566;19.012;2023-11-21T01:17:15;99488.84;;;9.13;100.00
79362;BME280;68830;47.566;19.012;2023-11-21T01:20:17;99465.81;;;8.87;100.00
79362;BME280;68830;47.566;19.012;2023-11-21T01:23:19;99493.81;;;8.80;100.00
79362;BME280;68830;47.566;19.012;2023-11-21T01:26:23;99493.13;;;8.78;100.00
79362;BME280;68830;47.566;19.012;2023-11-21T01:29:25;99420.00;;;8.43;100.00
79362;BME280;68830;47.566;19.012;2023-11-21T01:32:27;99479.63;;;8.99;100.00
79362;BME280;68830;47.566;19.012;2023-11-21T01:35:30;99474.13;;;8.92;100.00
79362;BME280;68830;47.566;19.012;2023-11-21T01:38:32;99467.50;;;9.06;100.00
79362;BME280;68830;47.566;19.012;2023-11-21T01:41:35;99462.97;;;9.16;98.70
79362;BME280;68830;47.566;19.012;2023-11-21T01:44:38;99464.31;;;9.03;100.00
79362;BME280;68830;47.566;19.012;2023-11-21T01:47:41;99472.16;;;8.77;100.00
79362;BME280;68830;47.566;19.012;2023-11-21T01:50:45;99473.09;;;8.58;100.00
79362;BME280;68830;47.566;19.012;2023-11-21T01:53:47;99471.69;;;8.36;100.00
79362;BME280;68830;47.566;19.012;2023-11-21T01:56:50;99460.59;;;8.23;100.00
79362;BME280;68830;47.566;19.012;2023-11-21T01:59:54;99461.75;;;8.10;100.00
79362;BME280;68830;47.566;19.012;2023-11-21T02:02:56;99459.25;;;8.09;100.00
79362;BME280;68830;47.566;19.012;2023-11-21T02:05:58;99448.09;;;7.97;100.00
79362;BME280;68830;47.566;19.012;2023-11-21T02:09:00;99446.81;;;8.01;100.00
79362;BME280;68830;47.566;19.012;2023-11-21T02:12:04;99438.06;;;8.01;100.00
79362;BME280;68830;47.566;19.012;2023-11-21T02:15:07;99444.19;;;8.01;100.00
79362;BME280;68830;47.566;19.012;2023-11-21T02:18:16;99437.38;;;7.99;100.00
79362;BME280;68830;47.566;19.012;2023-11-21T02:21:19;99441.25;;;8.04;100.00
79362;BME280;68830;47.566;19.012;2023-11-21T02:24:23;99444.56;;;8.06;100.00
79362;BME280;68830;47.566;19.012;2023-11-21T02:27:25;99439.59;;;8.03;100.00
79362;BME280;68830;47.566;19.012;2023-11-21T02:30:29;99442.81;;;7.97;100.00
79362;BME280;68830;47.566;19.012;2023-11-21T02:33:34;99444.56;;;8.06;100.00
79362;BME280;68830;47.566;19.012;2023-11-21T02:36:35;99414.03;;;8.04;100.00
79362;BME280;68830;47.566;19.012;2023-11-21T02:39:40;99421.94;;;8.14;100.00
79362;BME280;68830;47.566;19.012;2023-11-21T02:42:42;99436.69;;;8.34;100.00
79362;BME280;68830;47.566;19.012;2023-11-21T02:45:44;99429.16;;;8.39;100.00
79362;BME280;68830;47.566;19.012;2023-11-21T02:48:46;99435.69;;;8.45;100.00
79362;BME280;68830;47.566;19.012;2023-11-21T02:51:47;99434.72;;;8.63;100.00
79362;BME280;68830;47.566;19.012;2023-11-21T02:54:51;99439.50;;;8.78;100.00
79362;BME280;68830;47.566;19.012;2023-11-21T02:57:53;99422.53;;;8.80;100.00
79362;BME280;68830;47.566;19.012;2023-11-21T03:00:55;99364.72;;;8.42;100.00
79362;BME280;68830;47.566;19.012;2023-11-21T03:03:58;99426.66;;;8.83;100.00
79362;BME280;68830;47.566;19.012;2023-11-21T03:07:00;99424.84;;;9.01;100.00
79362;BME280;68830;47.566;19.012;2023-11-21T03:10:04;99417.84;;;8.74;100.00
79362;BME280;68830;47.566;19.012;2023-11-21T03:13:06;99393.94;;;8.58;100.00
79362;BME280;68830;47.566;19.012;2023-11-21T03:16:08;99409.88;;;8.56;100.00
79362;BME280;68830;47.566;19.012;2023-11-21T03:19:10;99386.75;;;8.23;100.00
79362;BME280;68830;47.566;19.012;2023-11-21T03:22:12;99407.00;;;8.22;100.00
79362;BME280;68830;47.566;19.012;2023-11-21T03:25:16;99399.34;;;8.01;100.00
79362;BME280;68830;47.566;19.012;2023-11-21T03:28:19;99401.72;;;7.95;100.00
79362;BME280;68830;47.566;19.012;2023-11-21T03:31:21;99378.19;;;7.84;100.00
79362;BME280;68830;47.566;19.012;2023-11-21T03:34:24;99375.59;;;7.74;100.00
79362;BME280;68830;47.566;19.012;2023-11-21T03:37:26;99393.75;;;7.77;100.00
79362;BME280;68830;47.566;19.012;2023-11-21T03:40:31;99388.09;;;7.72;100.00
79362;BME280;68830;47.566;19.012;2023-11-21T03:43:33;99389.91;;;7.71;100.00
79362;BME280;68830;47.566;19.012;2023-11-21T03:46:35;99381.31;;;7.69;100.00
79362;BME280;68830;47.566;19.012;2023-11-21T03:49:37;99378.13;;;7.66;100.00
79362;BME280;68830;47.566;19.012;2023-11-21T03:52:39;99370.22;;;7.66;100.00
79362;BME280;68830;47.566;19.012;2023-11-21T03:55:42;99368.69;;;7.63;100.00
79362;BME280;68830;47.566;19.012;2023-11-21T03:58:44;99356.13;;;7.47;100.00
79362;BME280;68830;47.566;19.012;2023-11-21T04:01:46;99377.19;;;7.57;100.00
79362;BME280;68830;47.566;19.012;2023-11-21T04:04:48;99381.78;;;7.55;100.00
79362;BME280;68830;47.566;19.012;2023-11-21T04:07:50;99387.88;;;7.56;100.00
79362;BME280;68830;47.566;19.012;2023-11-21T04:10:56;99394.94;;;7.55;100.00
79362;BME280;68830;47.566;19.012;2023-11-21T04:13:59;99384.34;;;7.65;100.00
79362;BME280;68830;47.566;19.012;2023-11-21T04:17:01;99356.56;;;7.43;100.00
79362;BME280;68830;47.566;19.012;2023-11-21T04:20:04;99397.28;;;7.58;100.00
79362;BME280;68830;47.566;19.012;2023-11-21T04:23:10;99387.34;;;7.33;100.00
79362;BME280;68830;47.566;19.012;2023-11-21T04:26:13;99424.22;;;7.52;100.00
79362;BME280;68830;47.566;19.012;2023-11-21T04:29:15;99424.75;;;7.46;100.00
79362;BME280;68830;47.566;19.012;2023-11-21T04:32:17;99423.25;;;7.43;100.00
79362;BME280;68830;47.566;19.012;2023-11-21T04:35:19;99391.53;;;7.35;100.00
79362;BME280;68830;47.566;19.012;2023-11-21T04:38:21;99424.72;;;7.65;100.00
79362;BME280;68830;47.566;19.012;2023-11-21T04:41:24;99364.06;;;7.38;100.00
79362;BME280;68830;47.566;19.012;2023-11-21T04:44:26;99398.13;;;7.59;100.00
79362;BME280;68830;47.566;19.012;2023-11-21T04:47:28;99395.78;;;7.56;100.00
79362;BME280;68830;47.566;19.012;2023-11-21T04:50:30;99354.66;;;7.26;100.00
79362;BME280;68830;47.566;19.012;2023-11-21T04:53:32;99364.22;;;7.36;100.00
79362;BME280;68830;47.566;19.012;2023-11-21T04:56:36;99423.88;;;7.74;100.00
79362;BME280;68830;47.566;19.012;2023-11-21T04:59:37;99434.41;;;7.65;100.00
79362;BME280;68830;47.566;19.012;2023-11-21T05:02:40;99434.69;;;7.71;100.00
79362;BME280;68830;47.566;19.012;2023-11-21T05:05:42;99447.19;;;7.60;100.00
79362;BME280;68830;47.566;19.012;2023-11-21T05:08:44;99438.91;;;7.55;100.00
79362;BME280;68830;47.566;19.012;2023-11-21T05:11:47;99431.59;;;7.39;100.00
79362;BME280;68830;47.566;19.012;2023-11-21T05:14:49;99427.28;;;7.38;100.00
79362;BME280;68830;47.566;19.012;2023-11-21T05:17:51;99456.09;;;7.49;100.00
79362;BME280;68830;47.566;19.012;2023-11-21T05:20:54;99443.50;;;7.53;100.00
79362;BME280;68830;47.566;19.012;2023-11-21T05:23:56;99435.31;;;7.46;100.00
79362;BME280;68830;47.566;19.012;2023-11-21T05:26:59;99419.25;;;7.30;100.00
79362;BME280;68830;47.566;19.012;2023-11-21T05:30:01;99434.47;;;7.45;100.00
79362;BME280;68830;47.566;19.012;2023-11-21T05:33:04;99428.50;;;7.53;100.00
79362;BME280;68830;47.566;19.012;2023-11-21T05:36:07;99417.28;;;7.41;100.00
79362;BME280;68830;47.566;19.012;2023-11-21T05:39:09;99436.22;;;7.64;100.00
79362;BME280;68830;47.566;19.012;2023-11-21T05:42:14;99440.22;;;7.78;100.00
79362;BME280;68830;47.566;19.012;2023-11-21T05:45:16;99345.94;;;7.25;100.00
79362;BME280;68830;47.566;19.012;2023-11-21T05:48:18;99442.28;;;7.84;100.00
79362;BME280;68830;47.566;19.012;2023-11-21T05:51:20;99420.78;;;7.79;100.00
79362;BME280;68830;47.566;19.012;2023-11-21T05:54:22;99437.09;;;8.02;100.00
79362;BME280;68830;47.566;19.012;2023-11-21T05:57:26;99368.53;;;7.65;100.00
79362;BME280;68830;47.566;19.012;2023-11-21T06:00:28;99446.50;;;8.14;100.00
79362;BME280;68830;47.566;19.012;2023-11-21T06:03:30;99433.63;;;8.01;100.00
79362;BME280;68830;47.566;19.012;2023-11-21T06:06:32;99475.44;;;8.24;100.00
79362;BME280;68830;47.566;19.012;2023-11-21T06:09:34;99474.47;;;8.34;100.00
79362;BME280;68830;47.566;19.012;2023-11-21T06:12:38;99481.28;;;8.55;100.00
79362;BME280;68830;47.566;19.012;2023-11-21T06:15:42;99488.28;;;8.74;100.00
79362;BME280;68830;47.566;19.012;2023-11-21T06:18:44;99480.91;;;8.77;100.00
79362;BME280;68830;47.566;19.012;2023-11-21T06:21:46;99498.03;;;8.73;100.00
79362;BME280;68830;47.566;19.012;2023-11-21T06:24:49;99499.88;;;8.63;100.00
79362;BME280;68830;47.566;19.012;2023-11-21T06:27:52;99506.13;;;8.62;100.00
79362;BME280;68830;47.566;19.012;2023-11-21T06:30:55;99494.50;;;8.55;100.00
79362;BME280;68830;47.566;19.012;2023-11-21T06:33:57;99527.34;;;8.70;100.00
79362;BME280;68830;47.566;19.012;2023-11-21T06:37:01;99531.59;;;8.81;100.00
79362;BME280;68830;47.566;19.012;2023-11-21T06:40:04;99530.91;;;8.79;100.00
79362;BME280;68830;47.566;19.012;2023-11-21T06:43:08;99527.00;;;8.83;100.00
79362;BME280;68830;47.566;19.012;2023-11-21T06:46:10;99531.81;;;8.87;100.00
79362;BME280;68830;47.566;19.012;2023-11-21T06:49:13;99536.16;;;8.88;100.00
79362;BME280;68830;47.566;19.012;2023-11-21T06:52:15;99463.03;;;8.44;100.00
79362;BME280;68830;47.566;19.012;2023-11-21T06:55:17;99513.88;;;8.73;100.00
79362;BME280;68830;47.566;19.012;2023-11-21T06:58:20;99527.06;;;8.73;100.00
79362;BME280;68830;47.566;19.012;2023-11-21T07:01:22;99494.50;;;8.55;100.00
79362;BME280;68830;47.566;19.012;2023-11-21T07:04:24;99486.34;;;6.37;100.00
79362;BME280;68830;47.566;19.012;2023-11-21T07:07:27;99472.78;;;6.11;100.00
79362;BME280;68830;47.566;19.012;2023-11-21T07:10:29;99455.75;;;6.06;100.00
79362;BME280;68830;47.566;19.012;2023-11-21T07:13:32;99483.84;;;6.36;100.00
79362;BME280;68830;47.566;19.012;2023-11-21T07:16:35;99471.19;;;6.20;100.00
79362;BME280;68830;47.566;19.012;2023-11-21T07:19:39;99493.03;;;6.51;100.00
79362;BME280;68830;47.566;19.012;2023-11-21T07:22:41;99485.19;;;6.80;100.00
79362;BME280;68830;47.566;19.012;2023-11-21T07:25:43;99469.28;;;6.81;100.00
79362;BME280;68830;47.566;19.012;2023-11-21T07:28:46;99491.03;;;6.93;100.00
79362;BME280;68830;47.566;19.012;2023-11-21T07:31:48;99568.94;;;7.15;100.00
79362;BME280;68830;47.566;19.012;2023-11-21T07:34:51;99553.28;;;7.71;100.00
79362;BME280;68830;47.566;19.012;2023-11-21T07:37:53;99532.53;;;8.15;100.00
79362;BME280;68830;47.566;19.012;2023-11-21T07:40:55;99548.22;;;8.63;100.00
79362;BME280;68830;47.566;19.012;2023-11-21T07:43:59;99567.63;;;8.99;100.00
79362;BME280;68830;47.566;19.012;2023-11-21T07:47:01;99559.03;;;9.15;100.00
79362;BME280;68830;47.566;19.012;2023-11-21T07:50:04;99513.22;;;9.07;100.00
79362;BME280;68830;47.566;19.012;2023-11-21T07:53:06;99542.91;;;9.36;99.46
79362;BME280;68830;47.566;19.012;2023-11-21T07:56:09;99549.84;;;9.73;98.72
79362;BME280;68830;47.566;19.012;2023-11-21T07:59:12;99554.38;;;9.80;97.19
79362;BME280;68830;47.566;19.012;2023-11-21T08:02:14;99515.13;;;9.14;100.00
79362;BME280;68830;47.566;19.012;2023-11-21T08:05:18;99520.19;;;8.16;100.00
79362;BME280;68830;47.566;19.012;2023-11-21T08:08:33;99445.16;;;7.54;100.00
79362;BME280;68830;47.566;19.012;2023-11-21T08:11:35;99530.66;;;7.98;100.00
79362;BME280;68830;47.566;19.012;2023-11-21T08:14:38;99516.34;;;7.91;100.00
79362;BME280;68830;47.566;19.012;2023-11-21T08:17:40;99515.53;;;7.80;100.00
79362;BME280;68830;47.566;19.012;2023-11-21T08:20:43;99535.38;;;7.65;100.00
79362;BME280;68830;47.566;19.012;2023-11-21T08:23:45;99456.25;;;6.99;100.00
79362;BME280;68830;47.566;19.012;2023-11-21T08:26:47;99522.50;;;7.33;100.00
79362;BME280;68830;47.566;19.012;2023-11-21T08:29:50;99515.16;;;7.27;100.00
79362;BME280;68830;47.566;19.012;2023-11-21T08:32:54;99514.19;;;7.28;100.00
79362;BME280;68830;47.566;19.012;2023-11-21T08:35:56;99514.34;;;7.36;100.00
79362;BME280;68830;47.566;19.012;2023-11-21T08:38:58;99467.06;;;7.15;100.00
79362;BME280;68830;47.566;19.012;2023-11-21T08:42:00;99498.25;;;7.49;100.00
79362;BME280;68830;47.566;19.012;2023-11-21T08:45:04;99520.16;;;7.59;100.00
79362;BME280;68830;47.566;19.012;2023-11-21T08:48:06;99505.16;;;7.50;100.00
79362;BME280;68830;47.566;19.012;2023-11-21T08:51:09;99518.75;;;7.65;100.00
79362;BME280;68830;47.566;19.012;2023-11-21T08:54:12;99401.53;;;7.03;100.00
79362;BME280;68830;47.566;19.012;2023-11-21T08:57:14;99514.53;;;8.01;100.00
79362;BME280;68830;47.566;19.012;2023-11-21T09:00:17;99521.19;;;8.05;100.00
79362;BME280;68830;47.566;19.012;2023-11-21T09:03:20;99515.31;;;8.11;100.00
79362;BME280;68830;47.566;19.012;2023-11-21T09:06:22;99517.00;;;8.12;100.00
79362;BME280;68830;47.566;19.012;2023-11-21T09:09:24;99526.00;;;8.19;100.00
79362;BME280;68830;47.566;19.012;2023-11-21T09:12:26;99516.03;;;8.13;100.00
79362;BME280;68830;47.566;19.012;2023-11-21T09:15:29;99500.63;;;8.08;100.00
79362;BME280;68830;47.566;19.012;2023-11-21T09:18:31;99491.34;;;8.04;100.00
79362;BME280;68830;47.566;19.012;2023-11-21T09:21:33;99513.31;;;8.32;100.00
79362;BME280;68830;47.566;19.012;2023-11-21T09:24:36;99493.03;;;8.33;100.00
79362;BME280;68830;47.566;19.012;2023-11-21T09:27:41;99459.69;;;8.14;100.00
79362;BME280;68830;47.566;19.012;2023-11-21T09:30:44;99502.75;;;8.42;100.00
79362;BME280;68830;47.566;19.012;2023-11-21T09:33:46;99504.81;;;8.48;100.00
79362;BME280;68830;47.566;19.012;2023-11-21T09:36:49;99480.94;;;8.40;100.00
79362;BME280;68830;47.566;19.012;2023-11-21T09:39:52;99485.91;;;8.53;100.00
79362;BME280;68830;47.566;19.012;2023-11-21T09:42:55;99497.25;;;8.63;100.00
79362;BME280;68830;47.566;19.012;2023-11-21T09:46:02;99486.22;;;8.67;100.00
79362;BME280;68830;47.566;19.012;2023-11-21T09:49:09;99479.66;;;8.72;100.00
79362;BME280;68830;47.566;19.012;2023-11-21T09:52:22;99488.97;;;8.76;100.00
79362;BME280;68830;47.566;19.012;2023-11-21T09:55:27;99438.25;;;8.54;100.00
79362;BME280;68830;47.566;19.012;2023-11-21T09:58:37;99425.50;;;8.50;100.00
79362;BME280;68830;47.566;19.012;2023-11-21T10:01:41;99467.69;;;8.77;100.00
79362;BME280;68830;47.566;19.012;2023-11-21T10:04:44;99386.59;;;8.24;100.00
79362;BME280;68830;47.566;19.012;2023-11-21T10:07:47;99356.31;;;8.28;100.00
79362;BME280;68830;47.566;19.012;2023-11-21T10:10:51;99460.56;;;9.05;100.00
79362;BME280;68830;47.566;19.012;2023-11-21T10:13:55;99455.69;;;9.18;100.00
79362;BME280;68830;47.566;19.012;2023-11-21T10:17:01;99463.72;;;9.26;100.00
79362;BME280;68830;47.566;19.012;2023-11-21T10:20:05;99451.41;;;9.35;100.00
79362;BME280;68830;47.566;19.012;2023-11-21T10:23:13;99444.69;;;9.41;100.00
79362;BME280;68830;47.566;19.012;2023-11-21T10:26:17;99435.00;;;9.32;100.00
79362;BME280;68830;47.566;19.012;2023-11-21T10:29:33;99402.88;;;9.18;100.00
79362;BME280;68830;47.566;19.012;2023-11-21T10:32:38;99429.66;;;9.41;100.00
79362;BME280;68830;47.566;19.012;2023-11-21T10:35:43;99418.09;;;9.42;100.00
79362;BME280;68830;47.566;19.012;2023-11-21T10:38:49;99437.34;;;9.52;100.00
79362;BME280;68830;47.566;19.012;2023-11-21T10:41:55;99429.84;;;9.48;100.00
79362;BME280;68830;47.566;19.012;2023-11-21T10:44:57;99440.66;;;9.54;100.00
79362;BME280;68830;47.566;19.012;2023-11-21T10:48:00;99439.34;;;9.58;100.00
79362;BME280;68830;47.566;19.012;2023-11-21T10:51:06;99433.75;;;9.62;100.00
79362;BME280;68830;47.566;19.012;2023-11-21T10:54:09;99451.03;;;9.74;100.00
79362;BME280;68830;47.566;19.012;2023-11-21T10:57:13;99433.34;;;9.74;100.00
79362;BME280;68830;47.566;19.012;2023-11-21T11:00:18;99446.16;;;9.87;100.00
79362;BME280;68830;47.566;19.012;2023-11-21T11:03:24;99424.81;;;9.88;100.00
79362;BME280;68830;47.566;19.012;2023-11-21T11:06:26;99434.63;;;9.96;100.00
79362;BME280;68830;47.566;19.012;2023-11-21T11:09:30;99419.22;;;9.92;100.00
79362;BME280;68830;47.566;19.012;2023-11-21T11:12:35;99424.25;;;10.03;100.00
79362;BME280;68830;47.566;19.012;2023-11-21T11:15:38;99418.56;;;9.89;100.00
79362;BME280;68830;47.566;19.012;2023-11-21T11:18:43;99426.22;;;10.01;100.00
79362;BME280;68830;47.566;19.012;2023-11-21T11:21:50;99409.16;;;9.95;100.00
79362;BME280;68830;47.566;19.012;2023-11-21T11:25:11;99410.66;;;9.98;100.00
79362;BME280;68830;47.566;19.012;2023-11-21T11:28:20;99425.56;;;10.07;100.00
79362;BME280;68830;47.566;19.012;2023-11-21T11:31:28;99429.06;;;10.07;100.00
79362;BME280;68830;47.566;19.012;2023-11-21T11:34:36;99429.06;;;10.07;100.00
79362;BME280;68830;47.566;19.012;2023-11-21T11:37:41;99419.63;;;10.05;100.00
79362;BME280;68830;47.566;19.012;2023-11-21T11:40:45;99404.84;;;9.94;100.00
79362;BME280;68830;47.566;19.012;2023-11-21T11:43:48;99419.13;;;10.01;99.54
79362;BME280;68830;47.566;19.012;2023-11-21T11:46:52;99359.47;;;9.73;100.00
79362;BME280;68830;47.566;19.012;2023-11-21T11:50:00;99345.06;;;9.67;100.00
79362;BME280;68830;47.566;19.012;2023-11-21T11:53:13;99421.13;;;10.07;100.00
79362;BME280;68830;47.566;19.012;2023-11-21T11:56:24;99366.75;;;9.79;100.00
79362;BME280;68830;47.566;19.012;2023-11-21T11:59:29;99410.75;;;10.14;100.00
79362;BME280;68830;47.566;19.012;2023-11-21T12:02:31;99369.47;;;9.95;100.00
79362;BME280;68830;47.566;19.012;2023-11-21T12:05:35;99382.78;;;10.11;100.00
79362;BME280;68830;47.566;19.012;2023-11-21T12:08:41;99375.47;;;10.05;100.00
79362;BME280;68830;47.566;19.012;2023-11-21T12:11:43;99383.13;;;10.16;100.00
79362;BME280;68830;47.566;19.012;2023-11-21T12:14:45;99398.22;;;10.24;100.00
79362;BME280;68830;47.566;19.012;2023-11-21T12:17:48;99377.63;;;10.10;100.00
79362;BME280;68830;47.566;19.012;2023-11-21T12:20:55;99391.94;;;10.25;100.00
79362;BME280;68830;47.566;19.012;2023-11-21T12:23:57;99374.03;;;10.11;100.00
79362;BME280;68830;47.566;19.012;2023-11-21T12:26:59;99399.22;;;10.23;100.00
79362;BME280;68830;47.566;19.012;2023-11-21T12:30:00;99406.88;;;10.34;100.00
79362;BME280;68830;47.566;19.012;2023-11-21T12:33:03;99323.66;;;9.86;100.00
79362;BME280;68830;47.566;19.012;2023-11-21T12:36:07;99392.16;;;10.32;100.00
79362;BME280;68830;47.566;19.012;2023-11-21T12:39:12;99372.91;;;10.22;100.00
79362;BME280;68830;47.566;19.012;2023-11-21T12:42:14;99308.13;;;9.83;100.00
79362;BME280;68830;47.566;19.012;2023-11-21T12:45:19;99384.22;;;10.32;100.00
79362;BME280;68830;47.566;19.012;2023-11-21T12:48:22;99371.56;;;10.17;100.00
79362;BME280;68830;47.566;19.012;2023-11-21T12:51:27;99383.72;;;10.28;100.00
79362;BME280;68830;47.566;19.012;2023-11-21T12:54:30;99404.56;;;10.31;100.00
79362;BME280;68830;47.566;19.012;2023-11-21T12:57:33;99369.41;;;10.13;100.00
79362;BME280;68830;47.566;19.012;2023-11-21T13:00:36;99365.22;;;10.02;100.00
79362;BME280;68830;47.566;19.012;2023-11-21T13:03:39;99397.50;;;10.14;100.00
79362;BME280;68830;47.566;19.012;2023-11-21T13:06:43;99357.22;;;9.94;99.98
79362;BME280;68830;47.566;19.012;2023-11-21T13:09:45;99394.16;;;10.04;100.00
79362;BME280;68830;47.566;19.012;2023-11-21T13:12:47;99396.63;;;9.97;100.00
79362;BME280;68830;47.566;19.012;2023-11-21T13:15:51;99381.00;;;9.86;100.00
79362;BME280;68830;47.566;19.012;2023-11-21T13:18:54;99386.66;;;9.91;99.10
79362;BME280;68830;47.566;19.012;2023-11-21T13:21:57;99393.41;;;9.85;100.00
79362;BME280;68830;47.566;19.012;2023-11-21T13:25:00;99395.38;;;9.83;100.00
79362;BME280;68830;47.566;19.012;2023-11-21T13:28:04;99390.72;;;9.77;100.00
79362;BME280;68830;47.566;19.012;2023-11-21T13:31:06;99384.88;;;9.66;100.00
79362;BME280;68830;47.566;19.012;2023-11-21T13:34:12;99401.78;;;9.73;100.00
79362;BME280;68830;47.566;19.012;2023-11-21T13:37:23;99405.72;;;9.69;100.00
79362;BME280;68830;47.566;19.012;2023-11-21T13:40:26;99398.56;;;9.61;100.00
79362;BME280;68830;47.566;19.012;2023-11-21T13:43:28;99401.88;;;9.63;100.00
79362;BME280;68830;47.566;19.012;2023-11-21T13:46:30;99403.47;;;9.56;100.00
79362;BME280;68830;47.566;19.012;2023-11-21T13:49:39;99404.78;;;9.52;100.00
79362;BME280;68830;47.566;19.012;2023-11-21T13:52:45;99419.97;;;9.50;100.00
79362;BME280;68830;47.566;19.012;2023-11-21T13:55:47;99419.28;;;9.48;100.00
79362;BME280;68830;47.566;19.012;2023-11-21T13:58:51;99400.56;;;9.41;100.00
79362;BME280;68830;47.566;19.012;2023-11-21T14:01:55;99423.84;;;9.38;100.00
79362;BME280;68830;47.566;19.012;2023-11-21T14:04:58;99401.81;;;9.29;100.00
79362;BME280;68830;47.566;19.012;2023-11-21T14:08:04;99403.09;;;9.25;100.00
79362;BME280;68830;47.566;19.012;2023-11-21T14:11:07;99416.47;;;9.23;100.00
79362;BME280;68830;47.566;19.012;2023-11-21T14:14:09;99433.75;;;9.18;100.00
79362;BME280;68830;47.566;19.012;2023-11-21T14:17:11;99406.75;;;9.06;100.00
79362;BME280;68830;47.566;19.012;2023-11-21T14:20:13;99413.59;;;8.99;100.00
79362;BME280;68830;47.566;19.012;2023-11-21T14:23:20;99428.09;;;8.95;100.00
79362;BME280;68830;47.566;19.012;2023-11-21T14:26:24;99431.47;;;8.87;100.00
79362;BME280;68830;47.566;19.012;2023-11-21T14:29:26;99437.84;;;8.77;100.00
79362;BME280;68830;47.566;19.012;2023-11-21T14:32:31;99426.03;;;8.71;100.00
79362;BME280;68830;47.566;19.012;2023-11-21T14:35:33;99438.91;;;8.56;100.00
79362;BME280;68830;47.566;19.012;2023-11-21T14:38:37;99433.78;;;8.55;100.00
79362;BME280;68830;47.566;19.012;2023-11-21T14:41:41;99439.75;;;8.57;100.00
79362;BME280;68830;47.566;19.012;2023-11-21T14:44:44;99452.78;;;8.31;100.00
79362;BME280;68830;47.566;19.012;2023-11-21T14:47:46;99429.34;;;8.00;100.00
79362;BME280;68830;47.566;19.012;2023-11-21T14:50:58;99434.00;;;7.69;100.00
79362;BME280;68830;47.566;19.012;2023-11-21T14:54:07;99445.69;;;7.67;100.00
79362;BME280;68830;47.566;19.012;2023-11-21T14:57:09;99447.09;;;7.42;100.00
79362;BME280;68830;47.566;19.012;2023-11-21T15:00:19;99458.34;;;7.25;100.00
79362;BME280;68830;47.566;19.012;2023-11-21T15:03:44;99443.38;;;7.15;100.00
79362;BME280;68830;47.566;19.012;2023-11-21T15:06:51;99459.59;;;7.11;100.00
79362;BME280;68830;47.566;19.012;2023-11-21T15:09:56;99443.09;;;6.80;100.00
79362;BME280;68830;47.566;19.012;2023-11-21T15:12:58;99439.06;;;6.66;100.00
79362;BME280;68830;47.566;19.012;2023-11-21T15:16:00;99444.78;;;6.91;100.00
79362;BME280;68830;47.566;19.012;2023-11-21T15:19:09;99438.00;;;7.07;100.00
79362;BME280;68830;47.566;19.012;2023-11-21T15:22:13;99449.63;;;7.05;100.00
79362;BME280;68830;47.566;19.012;2023-11-21T15:25:19;99453.63;;;6.89;100.00
79362;BME280;68830;47.566;19.012;2023-11-21T15:28:21;99428.25;;;6.69;100.00
79362;BME280;68830;47.566;19.012;2023-11-21T15:31:23;99458.59;;;6.73;100.00
79362;BME280;68830;47.566;19.012;2023-11-21T15:34:26;99445.41;;;6.54;100.00
79362;BME280;68830;47.566;19.012;2023-11-21T15:37:30;99379.81;;;6.12;100.00
79362;BME280;68830;47.566;19.012;2023-11-21T15:40:34;99427.88;;;6.24;100.00
79362;BME280;68830;47.566;19.012;2023-11-21T15:43:35;99484.16;;;6.52;100.00
79362;BME280;68830;47.566;19.012;2023-11-21T15:46:37;99473.53;;;6.63;100.00
79362;BME280;68830;47.566;19.012;2023-11-21T15:49:42;99452.69;;;6.41;100.00
79362;BME280;68830;47.566;19.012;2023-11-21T15:52:44;99373.00;;;5.90;100.00
79362;BME280;68830;47.566;19.012;2023-11-21T15:56:00;99461.28;;;6.33;100.00
79362;BME280;68830;47.566;19.012;2023-11-21T15:59:03;99392.91;;;5.93;100.00